Time;durP1;ratioP1;P1;durP2;ratioP2;P2;SDS_P1;SDS_P2;PMS_P1;PMS_P2;Temp;Humidity;BMP_temperature;BMP_pressure;BME280_temperature;BME280_humidity;BME280_pressure;Samples;Min_cycle;Max_cycle;Signal;HPM_P1;HPM_P2
2023/08/14 00:00:52;;;;;;;0.73;0.40;;;24.30;57.50;;;;;;6367469;27;20039;-53
2023/08/14 00:03:58;;;;;;;0.20;0.20;;;24.10;57.60;;;;;;6347518;27;20409;-55
2023/08/14 00:07:03;;;;;;;0.68;0.47;;;23.80;57.50;;;;;;6365135;27;20764;-55
2023/08/14 00:10:05;;;;;;;0.45;0.30;;;24.20;57.90;;;;;;6370005;27;20035;-55
2023/08/14 00:13:06;;;;;;;0.15;0.15;;;23.90;57.50;;;;;;6368564;27;20035;-54
2023/08/14 00:16:08;;;;;;;0.30;0.30;;;24.20;57.80;;;;;;6368707;27;20511;-55
2023/08/14 00:19:10;;;;;;;0.93;0.30;;;23.80;57.60;;;;;;6369495;27;20046;-55
2023/08/14 00:22:14;;;;;;;0.63;0.20;;;24.20;57.90;;;;;;6369104;27;20114;-55
2023/08/14 00:25:17;;;;;;;0.30;0.28;;;24.10;55.40;;;;;;6374036;27;20501;-52
2023/08/14 00:28:18;;;;;;;0.50;0.28;;;24.10;57.80;;;;;;6379043;27;20039;-52
2023/08/14 00:31:24;;;;;;;0.65;0.30;;;24.10;57.90;;;;;;6380948;27;20039;-50
2023/08/14 00:34:26;;;;;;;0.10;0.10;;;24.10;58.00;;;;;;6374997;27;20079;-50
2023/08/14 00:37:41;;;;;;;0.30;0.20;;;24.00;57.90;;;;;;6379439;27;20041;-48
2023/08/14 00:40:43;;;;;;;0.47;0.20;;;24.00;57.80;;;;;;6345719;27;20600;-50
2023/08/14 00:43:45;;;;;;;0.57;0.30;;;24.10;57.90;;;;;;6378267;27;20054;-50
2023/08/14 00:46:47;;;;;;;0.73;0.20;;;24.20;58.10;;;;;;6382385;27;20031;-50
2023/08/14 00:49:48;;;;;;;0.28;0.28;;;24.00;57.90;;;;;;6376285;27;20194;-51
2023/08/14 00:52:54;;;;;;;0.32;0.30;;;23.70;57.90;;;;;;6379329;27;20045;-50
2023/08/14 00:55:57;;;;;;;0.60;0.25;;;23.80;58.10;;;;;;6362886;27;20042;-50
2023/08/14 00:59:00;;;;;;;0.40;0.13;;;24.00;57.90;;;;;;6353781;27;20561;-50
2023/08/14 01:02:02;;;;;;;0.52;0.20;;;24.00;58.40;;;;;;6379153;27;20027;-53
2023/08/14 01:05:06;;;;;;;0.77;0.30;;;23.70;58.00;;;;;;6384815;27;20062;-49
2023/08/14 01:08:07;;;;;;;0.52;0.38;;;23.80;57.90;;;;;;6374531;27;20054;-53
2023/08/14 01:11:21;;;;;;;0.68;0.40;;;24.10;58.30;;;;;;6369526;27;20042;-51
2023/08/14 01:14:26;;;;;;;0.20;0.20;;;24.00;58.00;;;;;;6371004;27;20682;-52
2023/08/14 01:17:32;;;;;;;0.32;0.20;;;23.60;57.90;;;;;;6368152;27;20030;-53
2023/08/14 01:20:37;;;;;;;0.93;0.40;;;23.90;58.50;;;;;;6339521;27;20034;-53
2023/08/14 01:23:49;;;;;;;0.57;0.30;;;23.90;58.10;;;;;;6334860;27;20046;-51
2023/08/14 01:26:52;;;;;;;0.43;0.40;;;23.70;58.20;;;;;;6372639;27;20097;-49
2023/08/14 01:29:57;;;;;;;0.77;0.30;;;24.00;58.70;;;;;;6355028;27;20031;-53
2023/08/14 01:33:02;;;;;;;0.68;0.20;;;24.20;58.50;;;;;;6372573;27;20069;-51
2023/08/14 01:36:13;;;;;;;0.10;0.10;;;23.70;58.30;;;;;;6370207;27;20083;-52
2023/08/14 01:39:19;;;;;;;0.60;0.28;;;23.90;58.20;;;;;;6369891;27;20050;-51
2023/08/14 01:42:28;;;;;;;0.20;0.20;;;24.00;58.50;;;;;;6371004;27;20042;-51
2023/08/14 01:45:32;;;;;;;0.47;0.28;;;23.50;58.60;;;;;;6353124;27;20037;-50
2023/08/14 01:48:37;;;;;;;0.40;0.20;;;23.80;58.40;;;;;;6370111;27;20066;-51
2023/08/14 01:51:39;;;;;;;0.22;0.22;;;24.00;59.00;;;;;;6371795;27;20152;-53
2023/08/14 01:54:40;;;;;;;0.60;0.25;;;23.90;58.50;;;;;;6372546;27;20047;-49
2023/08/14 01:57:43;;;;;;;0.52;0.22;;;24.00;58.50;;;;;;6371463;27;20039;-51
2023/08/14 02:00:45;;;;;;;0.38;0.22;;;23.50;58.60;;;;;;6369305;27;20569;-52
2023/08/14 02:03:47;;;;;;;0.30;0.20;;;23.50;58.60;;;;;;6365912;27;20110;-53
2023/08/14 02:06:48;;;;;;;0.52;0.20;;;23.60;58.70;;;;;;6369955;27;20039;-49
2023/08/14 02:09:50;;;;;;;0.17;0.10;;;23.90;58.90;;;;;;6370050;27;20333;-49
2023/08/14 02:12:52;;;;;;;0.40;0.30;;;23.80;59.00;;;;;;6369282;27;20035;-52
2023/08/14 02:15:54;;;;;;;0.50;0.30;;;23.90;58.90;;;;;;6370723;27;20050;-52
2023/08/14 02:18:56;;;;;;;0.30;0.20;;;23.70;59.10;;;;;;6367521;27;20706;-51
2023/08/14 02:22:00;;;;;;;0.40;0.30;;;23.70;59.10;;;;;;6367990;27;20039;-50
2023/08/14 02:25:02;;;;;;;1.25;0.30;;;23.40;59.40;;;;;;6368775;27;20046;-50
2023/08/14 02:28:05;;;;;;;0.68;0.30;;;23.80;59.60;;;;;;6370558;27;20041;-52
2023/08/14 02:31:06;;;;;;;0.50;0.30;;;23.70;59.10;;;;;;6370554;27;20676;-53
2023/08/14 02:34:09;;;;;;;0.63;0.30;;;23.30;59.10;;;;;;6369701;27;20056;-50
2023/08/14 02:37:11;;;;;;;0.43;0.20;;;23.80;59.40;;;;;;6368403;27;20122;-50
2023/08/14 02:40:13;;;;;;;0.20;0.13;;;23.60;59.60;;;;;;6335196;27;20039;-50
2023/08/14 02:43:15;;;;;;;0.28;0.20;;;23.70;59.80;;;;;;6368814;27;20108;-51
2023/08/14 02:46:18;;;;;;;0.20;0.20;;;23.70;59.50;;;;;;6369682;27;20064;-51
2023/08/14 02:49:21;;;;;;;0.60;0.25;;;23.90;60.00;;;;;;6371245;27;20035;-51
2023/08/14 02:52:23;;;;;;;0.20;0.13;;;23.80;59.30;;;;;;6370535;27;20035;-52
2023/08/14 02:55:27;;;;;;;0.20;0.20;;;23.40;59.40;;;;;;6368484;27;20521;-52
2023/08/14 02:58:31;;;;;;;0.20;0.20;;;23.70;59.60;;;;;;6368730;27;20034;-49
2023/08/14 03:01:32;;;;;;;0.25;0.20;;;23.70;59.60;;;;;;6370103;27;20330;-49
2023/08/14 03:04:34;;;;;;;0.20;0.20;;;23.70;59.70;;;;;;6369838;27;20104;-51
2023/08/14 03:07:36;;;;;;;0.50;0.20;;;23.80;59.80;;;;;;6370996;27;20039;-50
2023/08/14 03:10:38;;;;;;;0.52;0.20;;;23.80;60.20;;;;;;6370205;27;20039;-50
2023/08/14 03:13:40;;;;;;;0.30;0.30;;;23.70;59.80;;;;;;6362462;27;20669;-52
2023/08/14 03:16:41;;;;;;;0.40;0.20;;;23.40;59.50;;;;;;6365510;27;20038;-51
2023/08/14 03:19:43;;;;;;;0.30;0.28;;;23.80;60.50;;;;;;6369548;27;20035;-50
2023/08/14 03:22:44;;;;;;;0.40;0.20;;;23.80;59.90;;;;;;6368115;27;20524;-49
2023/08/14 03:25:46;;;;;;;0.43;0.20;;;23.70;60.10;;;;;;6368752;27;20459;-52
2023/08/14 03:28:48;;;;;;;0.32;0.20;;;23.70;60.10;;;;;;6369625;27;20103;-51
2023/08/14 03:31:50;;;;;;;0.40;0.17;;;22.70;59.80;;;;;;6369544;27;20356;-51
2023/08/14 03:34:52;;;;;;;0.15;0.13;;;23.70;60.00;;;;;;6370484;27;20303;-53
2023/08/14 03:37:56;;;;;;;0.20;0.20;;;23.30;60.30;;;;;;6370578;27;20520;-52
2023/08/14 03:40:58;;;;;;;0.52;0.45;;;23.20;60.00;;;;;;6370844;27;20030;-50
2023/08/14 03:44:02;;;;;;;0.30;0.20;;;23.70;60.40;;;;;;6369719;27;20041;-48
2023/08/14 03:47:04;;;;;;;0.40;0.30;;;23.80;60.00;;;;;;6370179;27;20505;-50
2023/08/14 03:50:06;;;;;;;0.10;0.10;;;23.70;60.50;;;;;;6368970;27;20052;-51
2023/08/14 03:53:09;;;;;;;0.40;0.20;;;23.60;60.30;;;;;;6370227;27;20125;-51
2023/08/14 03:56:10;;;;;;;0.40;0.20;;;23.50;60.80;;;;;;6370575;27;20414;-49
2023/08/14 03:59:12;;;;;;;0.20;0.20;;;23.50;60.50;;;;;;6370306;27;20046;-49
2023/08/14 04:02:16;;;;;;;0.30;0.20;;;23.60;60.60;;;;;;6368810;27;20039;-48
2023/08/14 04:05:18;;;;;;;0.30;0.28;;;23.40;60.30;;;;;;6363568;27;20217;-48
2023/08/14 04:08:23;;;;;;;0.30;0.20;;;23.60;60.70;;;;;;6370213;27;20490;-51
2023/08/14 04:11:27;;;;;;;0.22;0.20;;;23.00;60.30;;;;;;6369782;27;20153;-50
2023/08/14 04:14:30;;;;;;;0.20;0.20;;;23.50;60.80;;;;;;6370254;27;20469;-50
2023/08/14 04:17:32;;;;;;;0.50;0.20;;;23.50;60.60;;;;;;6366788;27;20031;-51
2023/08/14 04:20:34;;;;;;;0.28;0.20;;;23.00;60.50;;;;;;6371482;27;20046;-51
2023/08/14 04:23:36;;;;;;;0.28;0.25;;;23.40;61.20;;;;;;6370782;27;20065;-51
2023/08/14 04:26:39;;;;;;;1.00;0.28;;;23.60;60.90;;;;;;6370774;27;20057;-47
2023/08/14 04:29:42;;;;;;;0.70;0.40;;;23.40;60.70;;;;;;6368091;27;20050;-52
2023/08/14 04:32:45;;;;;;;1.02;0.20;;;23.50;61.10;;;;;;6373589;27;20043;-47
2023/08/14 04:35:47;;;;;;;0.63;0.20;;;23.20;61.10;;;;;;6377197;27;20035;-48
2023/08/14 04:38:51;;;;;;;0.13;0.10;;;23.30;61.20;;;;;;6378546;27;20125;-50
2023/08/14 04:41:53;;;;;;;0.55;0.20;;;23.60;61.40;;;;;;6375530;27;20082;-50
2023/08/14 04:44:57;;;;;;;0.30;0.20;;;23.20;61.00;;;;;;6376655;27;20433;-48
2023/08/14 04:47:58;;;;;;;0.10;0.10;;;23.10;60.90;;;;;;6383039;27;20094;-47
2023/08/14 04:51:01;;;;;;;0.77;0.30;;;23.40;61.20;;;;;;6382091;27;20034;-49
2023/08/14 04:54:03;;;;;;;0.20;0.20;;;23.30;61.20;;;;;;6382321;27;20034;-50
2023/08/14 04:57:05;;;;;;;0.45;0.30;;;23.30;61.20;;;;;;6379781;27;20039;-51
2023/08/14 05:00:08;;;;;;;0.85;0.22;;;23.00;61.00;;;;;;6378492;27;20053;-50
2023/08/14 05:03:17;;;;;;;0.40;0.30;;;23.50;61.30;;;;;;6368911;27;20034;-51
2023/08/14 05:06:19;;;;;;;0.43;0.30;;;23.10;59.00;;;;;;6363069;27;20034;-48
2023/08/14 05:09:21;;;;;;;1.35;0.30;;;23.60;61.60;;;;;;6325957;27;20123;-52
2023/08/14 05:12:34;;;;;;;0.43;0.20;;;23.10;61.30;;;;;;6357777;27;20211;-49
2023/08/14 05:15:38;;;;;;;1.02;0.30;;;23.50;61.80;;;;;;6359637;27;20042;-49
2023/08/14 05:18:40;;;;;;;0.40;0.20;;;23.30;61.80;;;;;;6364327;27;20392;-48
2023/08/14 05:21:42;;;;;;;0.70;0.28;;;23.20;61.60;;;;;;6360942;27;20043;-50
2023/08/14 05:24:45;;;;;;;0.47;0.40;;;23.20;61.70;;;;;;6361298;27;20035;-50
2023/08/14 05:27:49;;;;;;;0.30;0.20;;;23.20;61.60;;;;;;6365421;27;20047;-49
2023/08/14 05:30:53;;;;;;;0.55;0.28;;;22.90;61.30;;;;;;6344867;27;20046;-46
2023/08/14 05:33:55;;;;;;;0.50;0.20;;;23.30;61.80;;;;;;6364837;27;20027;-49
2023/08/14 05:36:57;;;;;;;0.73;0.20;;;23.20;61.80;;;;;;6364390;27;20553;-49
2023/08/14 05:40:04;;;;;;;0.40;0.25;;;23.30;62.00;;;;;;6363007;27;20319;-46
2023/08/14 05:43:06;;;;;;;0.38;0.20;;;23.40;61.80;;;;;;6362747;27;20043;-47
2023/08/14 05:46:09;;;;;;;0.25;0.20;;;23.20;62.30;;;;;;6337293;27;20090;-47
2023/08/14 05:49:10;;;;;;;0.65;0.20;;;23.10;61.60;;;;;;6363584;27;20031;-51
2023/08/14 05:52:12;;;;;;;0.47;0.30;;;23.00;62.70;;;;;;6344130;27;20069;-51
2023/08/14 05:55:14;;;;;;;0.20;0.20;;;23.40;62.10;;;;;;6362761;27;20035;-50
2023/08/14 05:58:15;;;;;;;0.10;0.10;;;22.90;62.10;;;;;;6345382;27;20038;-50
2023/08/14 06:01:18;;;;;;;0.20;0.20;;;22.80;61.70;;;;;;6362351;27;20034;-47
2023/08/14 06:04:19;;;;;;;0.30;0.20;;;23.10;62.10;;;;;;6305753;27;20050;-48
2023/08/14 06:07:21;;;;;;;0.10;0.10;;;22.80;62.00;;;;;;6364008;27;20047;-50
2023/08/14 06:10:26;;;;;;;0.10;0.10;;;23.20;62.60;;;;;;6367614;27;20224;-53
2023/08/14 06:13:27;;;;;;;0.28;0.28;;;23.30;61.80;;;;;;6365992;27;20311;-48
2023/08/14 06:16:29;;;;;;;0.10;0.10;;;23.20;63.20;;;;;;6369027;27;20504;-49
2023/08/14 06:19:31;;;;;;;0.50;0.20;;;23.10;61.90;;;;;;6365211;27;20527;-48
2023/08/14 06:22:38;;;;;;;0.30;0.20;;;23.20;62.90;;;;;;6366402;27;20069;-50
2023/08/14 06:25:42;;;;;;;0.20;0.20;;;23.10;62.10;;;;;;6370433;27;20050;-51
2023/08/14 06:28:44;;;;;;;0.30;0.30;;;23.00;62.20;;;;;;6370456;27;20042;-45
2023/08/14 06:31:47;;;;;;;0.10;0.10;;;22.90;62.30;;;;;;6364308;27;20398;-49
2023/08/14 06:34:54;;;;;;;1.05;0.35;;;23.20;62.30;;;;;;6368061;27;20390;-47
2023/08/14 06:37:56;;;;;;;0.57;0.30;;;21.90;62.00;;;;;;6371423;27;20042;-46
2023/08/14 06:40:57;;;;;;;0.20;0.20;;;23.20;62.70;;;;;;6367807;27;20050;-47
2023/08/14 06:44:06;;;;;;;0.40;0.20;;;23.40;62.30;;;;;;6369170;27;20073;-49
2023/08/14 06:47:08;;;;;;;0.20;0.20;;;23.30;62.40;;;;;;6333876;27;20069;-50
2023/08/14 06:50:10;;;;;;;0.50;0.22;;;23.20;62.50;;;;;;6368593;27;20031;-48
2023/08/14 06:53:11;;;;;;;0.20;0.20;;;23.20;62.50;;;;;;6348104;27;20074;-49
2023/08/14 06:56:13;;;;;;;0.45;0.20;;;22.80;62.70;;;;;;6363405;27;20031;-49
2023/08/14 06:59:15;;;;;;;0.10;0.10;;;23.20;63.50;;;;;;6371709;27;20039;-52
2023/08/14 07:02:17;;;;;;;0.30;0.20;;;23.10;62.30;;;;;;6363663;27;20108;-48
2023/08/14 07:05:19;;;;;;;0.30;0.20;;;23.10;63.10;;;;;;6345595;27;20042;-49
2023/08/14 07:08:21;;;;;;;0.20;0.10;;;23.40;63.40;;;;;;6350482;27;20062;-49
2023/08/14 07:11:23;;;;;;;0.82;0.30;;;23.30;62.80;;;;;;6363364;27;20532;-47
2023/08/14 07:14:25;;;;;;;0.47;0.20;;;22.90;63.20;;;;;;6357931;27;20466;-46
2023/08/14 07:17:32;;;;;;;0.20;0.20;;;24.10;63.40;;;;;;6350311;27;20034;-49
2023/08/14 07:20:34;;;;;;;0.50;0.20;;;22.70;62.50;;;;;;6353500;27;20043;-46
2023/08/14 07:23:36;;;;;;;0.50;0.20;;;23.50;63.30;;;;;;6362292;27;20039;-46
2023/08/14 07:26:37;;;;;;;0.20;0.20;;;23.30;63.80;;;;;;6369248;27;20056;-49
2023/08/14 07:29:39;;;;;;;0.15;0.15;;;22.90;63.40;;;;;;6366119;27;20035;-46
2023/08/14 07:32:41;;;;;;;0.47;0.20;;;23.50;63.40;;;;;;6371541;27;20031;-49
2023/08/14 07:35:42;;;;;;;1.27;0.50;;;23.50;63.70;;;;;;6371751;27;20038;-48
2023/08/14 07:38:45;;;;;;;1.20;0.70;;;23.20;63.40;;;;;;6374768;27;20282;-50
2023/08/14 07:41:47;;;;;;;1.73;0.60;;;23.50;64.10;;;;;;6372512;27;20038;-50
2023/08/14 07:44:49;;;;;;;1.70;0.70;;;23.40;64.60;;;;;;6371978;27;20043;-47
2023/08/14 07:47:51;;;;;;;1.45;0.68;;;23.30;64.50;;;;;;6375628;27;20035;-50
2023/08/14 07:50:53;;;;;;;4.47;1.40;;;23.20;64.50;;;;;;6375063;27;20046;-50
2023/08/14 07:53:55;;;;;;;1.40;0.55;;;23.00;64.80;;;;;;6373190;27;20042;-50
2023/08/14 07:56:56;;;;;;;2.40;0.70;;;22.80;64.90;;;;;;6375279;27;20101;-46
2023/08/14 07:59:58;;;;;;;2.92;0.65;;;21.60;65.50;;;;;;6370249;27;20041;-47
2023/08/14 08:03:13;;;;;;;1.58;0.70;;;23.40;66.00;;;;;;6372460;27;20677;-48
2023/08/14 08:06:14;;;;;;;1.38;0.68;;;22.50;66.50;;;;;;6361725;27;20035;-50
2023/08/14 08:09:17;;;;;;;1.50;0.52;;;23.40;66.10;;;;;;6361013;27;20035;-49
2023/08/14 08:12:19;;;;;;;1.17;0.50;;;23.00;66.20;;;;;;6359262;27;20042;-49
2023/08/14 08:15:21;;;;;;;0.90;0.60;;;22.70;66.00;;;;;;6366064;27;20113;-51
2023/08/14 08:18:24;;;;;;;1.00;0.60;;;22.20;67.70;;;;;;6337606;27;20408;-47
2023/08/14 08:21:25;;;;;;;1.27;0.70;;;23.20;66.10;;;;;;6357979;27;20034;-50
2023/08/14 08:24:28;;;;;;;2.25;0.80;;;22.50;67.00;;;;;;6370293;27;20497;-49
2023/08/14 08:27:32;;;;;;;2.95;0.77;;;23.20;66.20;;;;;;6361629;27;20255;-49
2023/08/14 08:30:33;;;;;;;2.35;0.60;;;23.30;66.50;;;;;;6366335;27;20039;-50
2023/08/14 08:33:35;;;;;;;1.48;0.63;;;23.30;66.70;;;;;;6373127;27;20418;-47
2023/08/14 08:36:37;;;;;;;2.03;0.73;;;23.20;67.70;;;;;;6368665;27;20090;-50
2023/08/14 08:39:38;;;;;;;2.60;0.80;;;24.60;68.80;;;;;;6366618;27;20740;-46
2023/08/14 08:42:40;;;;;;;1.98;0.88;;;23.00;68.60;;;;;;6372083;27;20417;-47
2023/08/14 08:45:49;;;;;;;1.92;0.70;;;21.70;67.60;;;;;;6368969;27;20062;-49
2023/08/14 08:48:55;;;;;;;1.67;0.70;;;23.30;68.10;;;;;;6369828;27;20035;-49
2023/08/14 08:51:59;;;;;;;2.75;0.73;;;21.80;67.20;;;;;;6354872;27;20099;-47
2023/08/14 08:55:01;;;;;;;2.05;0.75;;;22.50;68.10;;;;;;6358073;27;20712;-47
2023/08/14 08:58:05;;;;;;;1.20;0.47;;;23.10;68.50;;;;;;6362079;27;20061;-52
2023/08/14 09:01:07;;;;;;;0.85;0.57;;;20.90;66.80;;;;;;6349990;27;20051;-47
2023/08/14 09:04:14;;;;;;;1.95;0.70;;;24.30;69.10;;;;;;6378948;27;20027;-49
2023/08/14 09:07:16;;;;;;;1.40;0.60;;;23.50;65.70;;;;;;6383818;27;20031;-50
2023/08/14 09:10:17;;;;;;;1.95;0.57;;;22.50;67.50;;;;;;6375863;27;20054;-49
2023/08/14 09:13:22;;;;;;;2.35;0.70;;;23.00;68.20;;;;;;6378579;27;20277;-47
2023/08/14 09:16:34;;;;;;;2.05;0.82;;;23.40;65.40;;;;;;6352799;27;20067;-49
2023/08/14 09:19:40;;;;;;;2.10;0.63;;;23.50;68.30;;;;;;6377268;27;20416;-47
2023/08/14 09:22:41;;;;;;;2.53;1.02;;;22.70;67.60;;;;;;6381170;27;20092;-45
2023/08/14 09:25:45;;;;;;;3.00;0.90;;;23.10;68.90;;;;;;6381871;27;20046;-49
2023/08/14 09:28:47;;;;;;;2.10;0.70;;;24.20;68.90;;;;;;6374560;27;20034;-48
2023/08/14 09:31:53;;;;;;;1.73;0.80;;;25.50;69.80;;;;;;6356210;27;20042;-47
2023/08/14 09:34:58;;;;;;;3.45;1.27;;;21.80;67.80;;;;;;6364281;27;20043;-49
2023/08/14 09:38:03;;;;;;;3.00;1.02;;;22.50;68.50;;;;;;6350563;27;20031;-49
2023/08/14 09:41:10;;;;;;;4.35;1.23;;;23.80;68.70;;;;;;6369017;27;20091;-47
2023/08/14 09:44:12;;;;;;;1.52;0.80;;;21.30;66.20;;;;;;6380562;27;20736;-49
2023/08/14 09:47:15;;;;;;;2.17;1.00;;;23.60;67.50;;;;;;6379169;27;20034;-49
2023/08/14 09:50:19;;;;;;;1.90;0.98;;;22.80;68.50;;;;;;6369647;27;20108;-48
2023/08/14 09:53:21;;;;;;;2.53;1.00;;;22.50;68.20;;;;;;6380550;27;20067;-49
2023/08/14 09:56:25;;;;;;;2.38;1.00;;;22.90;69.10;;;;;;6374520;27;20306;-50
2023/08/14 09:59:27;;;;;;;2.53;0.88;;;24.50;70.10;;;;;;6354208;27;20050;-48
2023/08/14 10:02:31;;;;;;;3.30;0.93;;;21.20;68.80;;;;;;6374793;27;20083;-50
2023/08/14 10:05:37;;;;;;;2.50;0.90;;;21.40;67.20;;;;;;6384549;27;20042;-46
2023/08/14 10:08:44;;;;;;;2.85;1.00;;;22.00;67.70;;;;;;6403044;27;20035;-49
2023/08/14 10:11:48;;;;;;;3.53;1.10;;;22.00;67.30;;;;;;6400327;27;20037;-48
2023/08/14 10:14:55;;;;;;;2.00;0.75;;;25.60;69.60;;;;;;6391239;27;20043;-48
2023/08/14 10:17:58;;;;;;;2.42;1.00;;;21.40;66.10;;;;;;6385589;27;20042;-52
2023/08/14 10:21:04;;;;;;;2.95;1.15;;;22.40;67.20;;;;;;6346123;27;20046;-47
2023/08/14 10:24:13;;;;;;;2.67;1.13;;;23.80;68.50;;;;;;6364463;27;20043;-47
2023/08/14 10:27:15;;;;;;;2.58;0.90;;;25.10;68.90;;;;;;6382147;27;20038;-50
2023/08/14 10:30:20;;;;;;;1.85;0.80;;;21.80;67.10;;;;;;6376829;27;20038;-47
2023/08/14 10:33:22;;;;;;;2.97;0.90;;;23.40;67.70;;;;;;6362088;27;20049;-48
2023/08/14 10:36:27;;;;;;;3.05;0.75;;;22.20;66.30;;;;;;6373065;27;20038;-50
2023/08/14 10:39:34;;;;;;;1.65;0.73;;;22.80;66.90;;;;;;6390940;27;20050;-51
2023/08/14 10:42:36;;;;;;;2.22;0.80;;;20.90;65.30;;;;;;6388820;27;20118;-52
2023/08/14 10:45:37;;;;;;;1.75;0.60;;;21.50;66.30;;;;;;6377503;27;20030;-49
2023/08/14 10:48:42;;;;;;;2.63;0.90;;;21.60;66.50;;;;;;6378362;27;20045;-49
2023/08/14 10:51:47;;;;;;;2.67;0.93;;;22.00;66.00;;;;;;6386170;27;20031;-50
2023/08/14 10:54:51;;;;;;;2.42;0.68;;;21.60;65.70;;;;;;6388623;27;20050;-46
2023/08/14 10:57:57;;;;;;;2.88;1.05;;;21.20;64.40;;;;;;6343271;27;20320;-49
2023/08/14 11:01:00;;;;;;;1.70;1.23;;;25.80;67.90;;;;;;6380167;27;20038;-49
2023/08/14 11:04:04;;;;;;;1.45;0.73;;;21.10;64.40;;;;;;6375424;27;20111;-51
2023/08/14 11:07:11;;;;;;;2.88;1.13;;;22.90;64.40;;;;;;6347816;27;20330;-49
2023/08/14 11:10:16;;;;;;;2.33;0.82;;;25.90;66.70;;;;;;6368705;27;20045;-50
2023/08/14 11:13:22;;;;;;;2.20;0.65;;;22.00;64.70;;;;;;6389603;27;20034;-50
2023/08/14 11:16:25;;;;;;;1.80;0.70;;;23.50;65.50;;;;;;6392427;27;20047;-48
2023/08/14 11:19:27;;;;;;;2.45;1.08;;;21.60;64.40;;;;;;6397267;27;20042;-48
2023/08/14 11:22:29;;;;;;;1.27;0.85;;;23.60;64.90;;;;;;6370577;27;20054;-50
2023/08/14 11:25:31;;;;;;;2.03;0.93;;;26.20;66.90;;;;;;6387367;27;20043;-47
2023/08/14 11:28:33;;;;;;;2.70;1.35;;;23.10;64.60;;;;;;6384128;27;20402;-51
2023/08/14 11:31:37;;;;;;;2.03;0.82;;;24.70;64.50;;;;;;6388658;27;20035;-50
2023/08/14 11:34:50;;;;;;;1.77;0.68;;;26.00;65.60;;;;;;6393025;27;20030;-49
2023/08/14 11:37:54;;;;;;;2.78;0.90;;;22.50;62.00;;;;;;6396405;27;20035;-52
2023/08/14 11:41:00;;;;;;;2.00;1.00;;;23.90;62.70;;;;;;6391256;27;20045;-52
2023/08/14 11:44:03;;;;;;;2.42;0.80;;;24.10;62.60;;;;;;6401330;27;20042;-47
2023/08/14 11:47:06;;;;;;;3.85;1.08;;;24.00;62.40;;;;;;6404900;27;20232;-52
2023/08/14 11:50:08;;;;;;;3.22;1.30;;;24.30;62.00;;;;;;6401342;27;20059;-49
2023/08/14 11:53:11;;;;;;;3.05;1.20;;;24.30;62.00;;;;;;6395779;27;20607;-49
2023/08/14 11:56:13;;;;;;;3.30;1.30;;;24.30;61.60;;;;;;6400459;27;20035;-48
2023/08/14 11:59:16;;;;;;;2.22;1.00;;;24.20;61.30;;;;;;6407069;27;20035;-50
2023/08/14 12:02:19;;;;;;;4.25;1.10;;;23.60;61.10;;;;;;6396847;27;20101;-49
2023/08/14 12:05:24;;;;;;;3.30;1.60;;;24.30;60.90;;;;;;6364570;27;20054;-47
2023/08/14 12:08:28;;;;;;;3.92;1.23;;;23.60;60.70;;;;;;6389126;27;20038;-51
2023/08/14 12:11:30;;;;;;;2.58;1.10;;;25.10;61.80;;;;;;6363263;27;20039;-49
2023/08/14 12:14:39;;;;;;;2.65;1.20;;;24.50;60.30;;;;;;6358942;27;20046;-48
2023/08/14 12:17:43;;;;;;;3.60;0.90;;;24.20;60.50;;;;;;6366049;27;20622;-47
2023/08/14 12:20:50;;;;;;;2.35;0.90;;;24.50;59.70;;;;;;6336563;27;20103;-49
2023/08/14 12:23:54;;;;;;;2.75;1.10;;;24.50;59.90;;;;;;6368211;27;20069;-50
2023/08/14 12:26:56;;;;;;;4.28;1.40;;;24.60;59.80;;;;;;6347985;27;20031;-46
2023/08/14 12:29:57;;;;;;;3.22;0.88;;;24.60;60.60;;;;;;6353623;27;20042;-46
2023/08/14 12:32:59;;;;;;;2.53;0.80;;;23.90;59.00;;;;;;6363728;27;20219;-47
2023/08/14 12:36:00;;;;;;;3.17;1.08;;;24.40;59.20;;;;;;6346585;27;20092;-49
2023/08/14 12:39:03;;;;;;;3.47;0.75;;;24.70;59.10;;;;;;6358519;27;20039;-59
2023/08/14 12:42:05;;;;;;;2.42;0.80;;;24.50;58.70;;;;;;6354789;27;20417;-59
2023/08/14 12:45:07;;;;;;;2.65;0.70;;;24.70;58.80;;;;;;6347629;27;20039;-59
2023/08/14 12:48:08;;;;;;;2.90;0.90;;;24.70;58.70;;;;;;6343805;27;20035;-59
2023/08/14 12:51:10;;;;;;;1.27;0.60;;;24.80;58.70;;;;;;6353529;27;20118;-59
2023/08/14 12:54:13;;;;;;;2.55;0.95;;;24.30;58.80;;;;;;6360751;27;20035;-59
2023/08/14 12:57:14;;;;;;;1.20;0.68;;;24.80;58.70;;;;;;6352175;27;20513;-59
2023/08/14 13:00:16;;;;;;;1.88;0.65;;;23.80;58.40;;;;;;6339121;27;20673;-60
2023/08/14 13:03:18;;;;;;;1.27;0.60;;;24.60;58.90;;;;;;6356794;27;20224;-59
2023/08/14 13:06:19;;;;;;;2.25;0.75;;;24.70;58.90;;;;;;6357151;27;20059;-60
2023/08/14 13:09:26;;;;;;;1.27;0.60;;;24.30;59.00;;;;;;6361744;27;20043;-59
2023/08/14 13:12:27;;;;;;;1.13;0.70;;;24.70;58.90;;;;;;6350279;27;20459;-59
2023/08/14 13:15:30;;;;;;;0.75;0.60;;;24.90;59.00;;;;;;6359018;27;20139;-60
2023/08/14 13:18:31;;;;;;;1.00;0.50;;;24.70;59.40;;;;;;6347732;27;20038;-59
2023/08/14 13:21:33;;;;;;;0.73;0.40;;;24.70;59.00;;;;;;6342601;27;20073;-59
2023/08/14 13:24:35;;;;;;;1.00;0.50;;;24.60;59.10;;;;;;6362159;27;20030;-59
2023/08/14 13:27:37;;;;;;;1.00;0.70;;;24.80;59.10;;;;;;6365597;27;20034;-59
2023/08/14 13:30:41;;;;;;;1.10;0.65;;;24.80;59.30;;;;;;6365868;27;20050;-59
2023/08/14 13:33:46;;;;;;;0.60;0.52;;;24.70;59.20;;;;;;6362541;27;20493;-59
2023/08/14 13:36:48;;;;;;;1.15;0.60;;;24.80;59.40;;;;;;6364649;27;20083;-60
2023/08/14 13:39:50;;;;;;;1.20;0.60;;;24.60;59.30;;;;;;6366892;27;20035;-59
2023/08/14 13:42:51;;;;;;;0.90;0.68;;;24.80;59.90;;;;;;6366943;27;20031;-59
2023/08/14 13:45:53;;;;;;;0.60;0.40;;;24.90;59.50;;;;;;6359543;27;20115;-60
2023/08/14 13:48:56;;;;;;;1.60;0.75;;;24.70;59.50;;;;;;6363356;27;20034;-59
2023/08/14 13:51:59;;;;;;;1.67;0.40;;;24.80;59.70;;;;;;6362648;27;20042;-59
2023/08/14 13:55:02;;;;;;;0.93;0.50;;;24.50;59.60;;;;;;6361966;27;20054;-60
2023/08/14 13:58:03;;;;;;;1.23;0.40;;;24.50;59.50;;;;;;6361376;27;20035;-58
2023/08/14 14:01:07;;;;;;;0.80;0.40;;;24.80;59.70;;;;;;6340736;27;20031;-59
2023/08/14 14:04:13;;;;;;;1.60;0.50;;;24.80;60.60;;;;;;6343852;27;20045;-59
2023/08/14 14:07:18;;;;;;;0.77;0.40;;;24.90;58.20;;;;;;6360592;27;20041;-58
2023/08/14 14:10:28;;;;;;;1.23;0.60;;;25.00;59.90;;;;;;6359758;27;20045;-58
2023/08/14 14:13:30;;;;;;;0.80;0.60;;;25.00;60.00;;;;;;6347599;27;20035;-58
2023/08/14 14:16:52;;;;;;;1.48;0.55;;;25.00;60.00;;;;;;6363583;27;20734;-58
2023/08/14 14:19:56;;;;;;;0.77;0.40;;;24.90;59.90;;;;;;6334877;27;20046;-59
2023/08/14 14:22:58;;;;;;;0.85;0.40;;;24.80;60.10;;;;;;6356453;27;20057;-59
2023/08/14 14:26:03;;;;;;;1.50;0.40;;;24.80;60.30;;;;;;6364307;27;20409;-59
2023/08/14 14:29:04;;;;;;;0.75;0.40;;;24.60;60.10;;;;;;6367325;27;20046;-58
2023/08/14 14:32:06;;;;;;;0.50;0.30;;;24.90;61.00;;;;;;6345250;27;20090;-59
2023/08/14 14:35:08;;;;;;;1.33;0.40;;;24.90;60.60;;;;;;6369351;27;20039;-59
2023/08/14 14:38:10;;;;;;;0.95;0.45;;;24.80;60.40;;;;;;6356537;27;20038;-59
2023/08/14 14:41:13;;;;;;;0.77;0.60;;;25.00;60.40;;;;;;6361322;27;20069;-59
2023/08/14 14:44:15;;;;;;;0.50;0.38;;;24.90;60.70;;;;;;6364682;27;20031;-58
2023/08/14 14:47:19;;;;;;;1.30;0.40;;;25.10;60.60;;;;;;6369609;27;20038;-58
2023/08/14 14:50:21;;;;;;;0.52;0.30;;;24.80;60.40;;;;;;6362397;27;20046;-58
2023/08/14 14:53:31;;;;;;;0.82;0.57;;;25.00;60.80;;;;;;6361461;27;20095;-58
2023/08/14 14:56:34;;;;;;;0.60;0.40;;;24.90;60.90;;;;;;6364623;27;20042;-58
2023/08/14 14:59:35;;;;;;;0.40;0.40;;;25.00;61.30;;;;;;6349305;27;20657;-58
2023/08/14 15:02:37;;;;;;;0.30;0.25;;;25.00;61.20;;;;;;6345997;27;20088;-58
2023/08/14 15:05:48;;;;;;;0.50;0.40;;;24.90;60.90;;;;;;6331738;27;20035;-58
2023/08/14 15:08:49;;;;;;;0.85;0.57;;;25.00;61.30;;;;;;6334165;27;20031;-58
2023/08/14 15:11:51;;;;;;;0.40;0.25;;;25.10;61.40;;;;;;6346495;27;20577;-58
2023/08/14 15:14:54;;;;;;;0.35;0.30;;;25.50;62.10;;;;;;6331140;27;20043;-58
2023/08/14 15:17:57;;;;;;;0.50;0.30;;;25.10;61.50;;;;;;6286898;27;20643;-59
2023/08/14 15:20:59;;;;;;;0.60;0.30;;;25.00;61.70;;;;;;6368491;27;20611;-59
2023/08/14 15:24:00;;;;;;;1.65;0.40;;;25.10;61.60;;;;;;6360062;27;20039;-59
2023/08/14 15:27:02;;;;;;;0.60;0.30;;;24.00;61.20;;;;;;6364858;27;20030;-58
2023/08/14 15:30:05;;;;;;;0.55;0.20;;;25.00;62.00;;;;;;6359686;27;20074;-59
2023/08/14 15:33:06;;;;;;;0.47;0.30;;;24.90;61.60;;;;;;6346574;27;20038;-59
2023/08/14 15:36:08;;;;;;;1.35;0.35;;;24.90;61.80;;;;;;6359863;27;20351;-59
2023/08/14 15:39:10;;;;;;;0.40;0.30;;;24.90;61.90;;;;;;6362856;27;20266;-59
2023/08/14 15:42:13;;;;;;;0.60;0.30;;;24.90;61.80;;;;;;6361512;27;20421;-59
2023/08/14 15:45:14;;;;;;;0.77;0.32;;;24.60;62.30;;;;;;6363651;27;20349;-59
2023/08/14 15:48:16;;;;;;;0.40;0.25;;;25.00;62.10;;;;;;6361316;27;20039;-59
2023/08/14 15:51:18;;;;;;;0.85;0.30;;;25.30;62.80;;;;;;6362717;27;20709;-59
2023/08/14 15:54:20;;;;;;;0.68;0.30;;;24.50;61.90;;;;;;6363609;27;20046;-59